Spearfish, SD (57799)

3:01 PM MST on February 10, 2016 (GMT -0700)
TMWC | | Change Station
CLOSE
Current Station
Personal Weather Station
Location: Spearfish, SD
Elevation: 3685 ft
Nearby Weather Stations

Elev 3685 ft 44.49 °N, 103.87 °W | Updated 13 seconds ago

Clear
Clear
58.5 °F
Feels Like 58.5 °F
N
14.3
Wind Variable Wind from WNW
Gusts 14.3 mph

Today
High -- | Low -- °F
--% Chance of Precip.
Yesterday
High -- | Low -- °F
Precip. -- in
Pressure 29.99 in
Visibility 10.0 miles
Clouds Clear
Dew Point 25 °F
Humidity 27%
Rainfall 0.00 in
Snow Depth Not available.
7:03 AM 5:16 PM
Waxing Crescent, 7% visible
METAR KSPF 102135Z AUTO 32019G27KT 10SM CLR 13/M04 A2999 RMK AO2
Pressure 29.99 in
Visibility 10.0 miles
Clouds Clear
Dew Point 25 °F
Humidity 27%
Rainfall 0.00 in
Snow Depth Not available.
7:03 AM 5:16 PM
Waxing Crescent, 7% visible
METAR KSPF 102135Z AUTO 32019G27KT 10SM CLR 13/M04 A2999 RMK AO2

10-Day Weather Forecast

Almanac

Astronomy

Feb. 10, 2016 Rise Set
Actual Time
Civil Twilight
Nautical Twilight
Astronomical Twilight
Moon
Length of Visible Light
Length of Day
Tomorrow will be .
, % of the Moon is Illuminated

Today's Extremes

State Highs State Lows

Community

WunderPhotos

Upload Photos

1,891,959 photos uploaded!

WunderBlog® & News

Nearby

Air Quality

  Air Quality AQ Index Pollutant
Not available.

Snow Depth

Station Depth Elevation

Earthquake Activity

City Distance Mag. Time & Date
Minimum magnitude displayed is 2.5.

Coastal Water Temperatures

Place Temperature

Stations

Nearby Weather Stations

Station Location Temp. Windchill Dew Point Humidity Wind Precip. Elev Updated Type
                   

Watches & Warnings

There are currently no watches in effect.